Airfield :
LOGIN :

Register | Disclaimer

   EN    FR    IT 

 










Legend :    VFR   Marginal VFR   IFR   Intensive IFR   Very Intensive IFR
Visi :
Ceiling :
>= 8 km
>= 3000ft
5 to 8 km
1000 to 3000 ft
1500m to 5 km
500 to 1000 ft
800 to 1500m
200 to 500 ft
< 800m
< 200 ft
Symbols :   Thunderstorms  Fog  Heavy snow  Heavy precipitations  Wind > 20 kt
SIGMETs :     Misc.  Thunderstorms  Icing  Turbulence  Mountain Waves  Volcanic Ashes






- Airport Elevation : 309 ft
- IATA code : FNI


LFTW - Nîmes Garons

CURRENT METAR :
  • 150530Z AUTO 33013KT //// R18///// // ////// 15/13 Q1008

EXPIRED METARs :
  • 150500Z AUTO 20002KT //// R18///// // ////// 18/17 Q1007
  • 150430Z AUTO 18010KT //// R18///// // ////// 18/17 Q1008
  • 150400Z AUTO 17010KT //// R18///// // ////// 18/18 Q1008
  • 150330Z AUTO 19009KT //// R18///// // OVC014/// ///CB 19/18 Q1008
  • 150300Z AUTO 15009KT 120V180 //// R18///// // BKN008/// BKN015/// OVC023/// ///CB 18/17 Q1008

TAF TAF LFTW
Valid from the 15 at 03:00 until the 16 at 03:00 UTC


150200Z 1503/1603 14020KT 9999 FEW025CB BKN080
TEMPO 1503/1505 VRB25G40KT 1500 TSRA BR BKN015CB
BECMG 1505/1507 29010KT
TEMPO 1505/1508 3000 SHRA BKN020TCU
BECMG 1519/1521 VRB04KT



MET'MAP, your aeronautical weather chart ! - Copyright ORBIFLY December 2007 - Disclaimer

ORBIFLY MET'MAP TEAM :

Programming & Development : Alexandra Zaïnal
Concept & Development : Baudouin d'Aumeries
Co-Development & Prog : Marc-Olivier Méhu
Technical & hardware support : Manuel Goepfert

Contact : metmap@orbifly.com




SOURCES & CREDITS :

   NOAA